sensor_id;sensor_type;location;lat;lon;timestamp;P1;durP1;ratioP1;P2;durP2;ratioP2
8514;SDS011;4295;51.024;7.000;2022-12-07T00:01:11;88.77;;;14.90;;
8514;SDS011;4295;51.024;7.000;2022-12-07T00:03:39;90.63;;;14.40;;
8514;SDS011;4295;51.024;7.000;2022-12-07T00:06:06;92.00;;;14.07;;
8514;SDS011;4295;51.024;7.000;2022-12-07T00:08:32;89.93;;;14.80;;
8514;SDS011;4295;51.024;7.000;2022-12-07T00:11:06;90.43;;;14.70;;
8514;SDS011;4295;51.024;7.000;2022-12-07T00:13:33;87.43;;;14.90;;
8514;SDS011;4295;51.024;7.000;2022-12-07T00:16:00;90.10;;;16.17;;
8514;SDS011;4295;51.024;7.000;2022-12-07T00:18:30;85.67;;;14.60;;
8514;SDS011;4295;51.024;7.000;2022-12-07T00:21:03;91.03;;;16.43;;
8514;SDS011;4295;51.024;7.000;2022-12-07T00:23:30;90.77;;;15.60;;
8514;SDS011;4295;51.024;7.000;2022-12-07T00:25:55;88.70;;;15.17;;
8514;SDS011;4295;51.024;7.000;2022-12-07T00:28:21;85.37;;;14.30;;
8514;SDS011;4295;51.024;7.000;2022-12-07T00:30:46;84.27;;;14.07;;
8514;SDS011;4295;51.024;7.000;2022-12-07T00:33:11;91.47;;;15.57;;
8514;SDS011;4295;51.024;7.000;2022-12-07T00:35:37;89.63;;;15.50;;
8514;SDS011;4295;51.024;7.000;2022-12-07T00:38:02;87.93;;;14.63;;
8514;SDS011;4295;51.024;7.000;2022-12-07T00:40:27;94.13;;;16.27;;
8514;SDS011;4295;51.024;7.000;2022-12-07T00:42:53;87.77;;;14.50;;
8514;SDS011;4295;51.024;7.000;2022-12-07T00:45:18;85.77;;;12.87;;
8514;SDS011;4295;51.024;7.000;2022-12-07T00:47:43;88.20;;;14.30;;
8514;SDS011;4295;51.024;7.000;2022-12-07T00:50:09;87.67;;;15.20;;
8514;SDS011;4295;51.024;7.000;2022-12-07T00:52:34;92.10;;;15.80;;
8514;SDS011;4295;51.024;7.000;2022-12-07T00:54:59;94.30;;;15.03;;
8514;SDS011;4295;51.024;7.000;2022-12-07T00:57:25;85.23;;;14.20;;
8514;SDS011;4295;51.024;7.000;2022-12-07T00:59:50;88.07;;;14.00;;
8514;SDS011;4295;51.024;7.000;2022-12-07T01:02:20;89.77;;;14.47;;
8514;SDS011;4295;51.024;7.000;2022-12-07T01:04:45;87.17;;;14.67;;
8514;SDS011;4295;51.024;7.000;2022-12-07T01:07:10;86.70;;;14.40;;
8514;SDS011;4295;51.024;7.000;2022-12-07T01:09:36;88.93;;;15.03;;
8514;SDS011;4295;51.024;7.000;2022-12-07T01:12:01;86.07;;;14.33;;
8514;SDS011;4295;51.024;7.000;2022-12-07T01:14:27;85.73;;;13.77;;
8514;SDS011;4295;51.024;7.000;2022-12-07T01:16:53;86.47;;;13.90;;
8514;SDS011;4295;51.024;7.000;2022-12-07T01:19:18;90.10;;;14.60;;
8514;SDS011;4295;51.024;7.000;2022-12-07T01:21:43;89.63;;;14.70;;
8514;SDS011;4295;51.024;7.000;2022-12-07T01:24:09;87.00;;;14.77;;
8514;SDS011;4295;51.024;7.000;2022-12-07T01:26:35;89.63;;;14.80;;
8514;SDS011;4295;51.024;7.000;2022-12-07T01:29:01;89.93;;;15.10;;
8514;SDS011;4295;51.024;7.000;2022-12-07T01:31:26;89.30;;;15.60;;
8514;SDS011;4295;51.024;7.000;2022-12-07T01:33:53;90.73;;;15.60;;
8514;SDS011;4295;51.024;7.000;2022-12-07T01:38:50;89.17;;;15.20;;
8514;SDS011;4295;51.024;7.000;2022-12-07T01:41:19;90.17;;;16.10;;
8514;SDS011;4295;51.024;7.000;2022-12-07T01:46:32;89.63;;;15.90;;
8514;SDS011;4295;51.024;7.000;2022-12-07T01:48:58;87.73;;;15.57;;
8514;SDS011;4295;51.024;7.000;2022-12-07T01:51:24;89.00;;;14.77;;
8514;SDS011;4295;51.024;7.000;2022-12-07T01:53:50;96.67;;;16.70;;
8514;SDS011;4295;51.024;7.000;2022-12-07T01:56:17;90.97;;;16.00;;
8514;SDS011;4295;51.024;7.000;2022-12-07T01:58:45;93.37;;;15.60;;
8514;SDS011;4295;51.024;7.000;2022-12-07T02:01:11;90.87;;;15.27;;
8514;SDS011;4295;51.024;7.000;2022-12-07T02:03:41;92.77;;;16.83;;
8514;SDS011;4295;51.024;7.000;2022-12-07T02:06:08;89.60;;;16.07;;
8514;SDS011;4295;51.024;7.000;2022-12-07T02:08:36;89.77;;;15.97;;
8514;SDS011;4295;51.024;7.000;2022-12-07T02:11:03;91.43;;;16.20;;
8514;SDS011;4295;51.024;7.000;2022-12-07T02:13:31;92.37;;;16.27;;
8514;SDS011;4295;51.024;7.000;2022-12-07T02:21:17;90.60;;;16.60;;
8514;SDS011;4295;51.024;7.000;2022-12-07T02:29:28;101.07;;;17.60;;
8514;SDS011;4295;51.024;7.000;2022-12-07T02:40:02;95.07;;;18.37;;
8514;SDS011;4295;51.024;7.000;2022-12-07T02:42:43;93.40;;;18.37;;
8514;SDS011;4295;51.024;7.000;2022-12-07T02:45:14;94.17;;;18.80;;
8514;SDS011;4295;51.024;7.000;2022-12-07T02:47:42;106.10;;;16.90;;
8514;SDS011;4295;51.024;7.000;2022-12-07T02:50:09;88.07;;;16.57;;
8514;SDS011;4295;51.024;7.000;2022-12-07T02:52:35;92.70;;;17.97;;
8514;SDS011;4295;51.024;7.000;2022-12-07T02:55:01;99.07;;;19.87;;
8514;SDS011;4295;51.024;7.000;2022-12-07T03:00:00;90.77;;;17.03;;
8514;SDS011;4295;51.024;7.000;2022-12-07T03:18:32;90.37;;;17.07;;
8514;SDS011;4295;51.024;7.000;2022-12-07T03:21:04;94.90;;;17.30;;
8514;SDS011;4295;51.024;7.000;2022-12-07T03:23:35;91.17;;;17.37;;
8514;SDS011;4295;51.024;7.000;2022-12-07T03:26:03;96.00;;;19.00;;
8514;SDS011;4295;51.024;7.000;2022-12-07T03:28:35;89.50;;;16.87;;
8514;SDS011;4295;51.024;7.000;2022-12-07T03:31:07;95.00;;;18.97;;
8514;SDS011;4295;51.024;7.000;2022-12-07T03:33:48;92.47;;;17.20;;
8514;SDS011;4295;51.024;7.000;2022-12-07T03:36:56;95.00;;;16.37;;
8514;SDS011;4295;51.024;7.000;2022-12-07T03:39:21;96.03;;;18.10;;
8514;SDS011;4295;51.024;7.000;2022-12-07T03:41:51;88.27;;;16.20;;
8514;SDS011;4295;51.024;7.000;2022-12-07T03:44:17;89.97;;;16.83;;
8514;SDS011;4295;51.024;7.000;2022-12-07T03:46:52;93.47;;;18.70;;
8514;SDS011;4295;51.024;7.000;2022-12-07T03:54:34;95.97;;;17.37;;
8514;SDS011;4295;51.024;7.000;2022-12-07T03:57:05;93.87;;;17.77;;
8514;SDS011;4295;51.024;7.000;2022-12-07T03:59:32;95.03;;;18.93;;
8514;SDS011;4295;51.024;7.000;2022-12-07T04:02:02;96.67;;;17.87;;
8514;SDS011;4295;51.024;7.000;2022-12-07T04:04:29;94.13;;;16.97;;
8514;SDS011;4295;51.024;7.000;2022-12-07T04:06:55;94.47;;;17.23;;
8514;SDS011;4295;51.024;7.000;2022-12-07T04:09:20;94.70;;;18.07;;
8514;SDS011;4295;51.024;7.000;2022-12-07T04:11:46;94.70;;;18.43;;
8514;SDS011;4295;51.024;7.000;2022-12-07T04:14:11;101.17;;;18.57;;
8514;SDS011;4295;51.024;7.000;2022-12-07T04:16:52;92.90;;;17.57;;
8514;SDS011;4295;51.024;7.000;2022-12-07T04:19:22;96.47;;;18.57;;
8514;SDS011;4295;51.024;7.000;2022-12-07T04:21:53;90.87;;;17.97;;
8514;SDS011;4295;51.024;7.000;2022-12-07T04:24:19;95.90;;;19.90;;
8514;SDS011;4295;51.024;7.000;2022-12-07T04:26:44;90.37;;;18.30;;
8514;SDS011;4295;51.024;7.000;2022-12-07T04:29:11;96.17;;;18.27;;
8514;SDS011;4295;51.024;7.000;2022-12-07T04:31:36;103.20;;;19.40;;
8514;SDS011;4295;51.024;7.000;2022-12-07T04:34:02;92.87;;;16.90;;
8514;SDS011;4295;51.024;7.000;2022-12-07T04:36:28;94.43;;;19.20;;
8514;SDS011;4295;51.024;7.000;2022-12-07T04:38:54;95.10;;;18.00;;
8514;SDS011;4295;51.024;7.000;2022-12-07T04:41:20;94.00;;;17.13;;
8514;SDS011;4295;51.024;7.000;2022-12-07T04:43:52;95.37;;;19.30;;
8514;SDS011;4295;51.024;7.000;2022-12-07T04:46:21;93.17;;;18.20;;
8514;SDS011;4295;51.024;7.000;2022-12-07T04:48:47;94.70;;;19.73;;
8514;SDS011;4295;51.024;7.000;2022-12-07T04:51:12;94.70;;;17.80;;
8514;SDS011;4295;51.024;7.000;2022-12-07T04:53:40;97.33;;;16.70;;
8514;SDS011;4295;51.024;7.000;2022-12-07T04:56:06;96.17;;;18.80;;
8514;SDS011;4295;51.024;7.000;2022-12-07T04:58:31;94.50;;;18.70;;
8514;SDS011;4295;51.024;7.000;2022-12-07T05:00:56;90.90;;;16.53;;
8514;SDS011;4295;51.024;7.000;2022-12-07T05:03:22;92.00;;;17.50;;
8514;SDS011;4295;51.024;7.000;2022-12-07T05:05:47;90.60;;;17.30;;
8514;SDS011;4295;51.024;7.000;2022-12-07T05:08:12;92.97;;;17.50;;
8514;SDS011;4295;51.024;7.000;2022-12-07T05:10:38;91.87;;;16.83;;
8514;SDS011;4295;51.024;7.000;2022-12-07T05:13:03;96.50;;;18.80;;
8514;SDS011;4295;51.024;7.000;2022-12-07T05:15:28;96.13;;;16.70;;
8514;SDS011;4295;51.024;7.000;2022-12-07T05:17:54;88.53;;;15.83;;
8514;SDS011;4295;51.024;7.000;2022-12-07T05:20:20;91.77;;;17.57;;
8514;SDS011;4295;51.024;7.000;2022-12-07T05:22:45;98.63;;;17.57;;
8514;SDS011;4295;51.024;7.000;2022-12-07T05:25:10;93.17;;;18.97;;
8514;SDS011;4295;51.024;7.000;2022-12-07T05:27:36;93.57;;;18.10;;
8514;SDS011;4295;51.024;7.000;2022-12-07T05:30:01;92.30;;;16.87;;
8514;SDS011;4295;51.024;7.000;2022-12-07T05:32:26;95.37;;;18.27;;
8514;SDS011;4295;51.024;7.000;2022-12-07T05:34:52;100.03;;;17.07;;
8514;SDS011;4295;51.024;7.000;2022-12-07T05:37:19;92.83;;;18.00;;
8514;SDS011;4295;51.024;7.000;2022-12-07T05:39:45;93.27;;;17.60;;
8514;SDS011;4295;51.024;7.000;2022-12-07T05:42:10;90.77;;;17.37;;
8514;SDS011;4295;51.024;7.000;2022-12-07T05:44:39;96.37;;;17.77;;
8514;SDS011;4295;51.024;7.000;2022-12-07T05:47:05;96.97;;;17.07;;
8514;SDS011;4295;51.024;7.000;2022-12-07T05:49:31;98.00;;;18.10;;
8514;SDS011;4295;51.024;7.000;2022-12-07T05:51:57;89.27;;;16.90;;
8514;SDS011;4295;51.024;7.000;2022-12-07T05:54:23;92.17;;;18.07;;
8514;SDS011;4295;51.024;7.000;2022-12-07T05:56:48;95.37;;;18.00;;
8514;SDS011;4295;51.024;7.000;2022-12-07T05:59:14;91.77;;;17.80;;
8514;SDS011;4295;51.024;7.000;2022-12-07T06:01:55;89.90;;;16.80;;
8514;SDS011;4295;51.024;7.000;2022-12-07T06:04:26;95.47;;;16.70;;
8514;SDS011;4295;51.024;7.000;2022-12-07T06:06:53;96.40;;;16.87;;
8514;SDS011;4295;51.024;7.000;2022-12-07T06:09:19;91.00;;;16.07;;
8514;SDS011;4295;51.024;7.000;2022-12-07T06:11:46;89.30;;;16.77;;
8514;SDS011;4295;51.024;7.000;2022-12-07T06:14:30;92.10;;;16.83;;
8514;SDS011;4295;51.024;7.000;2022-12-07T06:16:56;94.13;;;17.07;;
8514;SDS011;4295;51.024;7.000;2022-12-07T06:19:21;85.67;;;14.50;;
8514;SDS011;4295;51.024;7.000;2022-12-07T06:21:47;100.77;;;15.70;;
8514;SDS011;4295;51.024;7.000;2022-12-07T06:24:13;95.03;;;15.37;;
8514;SDS011;4295;51.024;7.000;2022-12-07T06:26:39;90.53;;;14.70;;
8514;SDS011;4295;51.024;7.000;2022-12-07T06:29:05;89.10;;;15.20;;
8514;SDS011;4295;51.024;7.000;2022-12-07T06:31:31;88.57;;;13.93;;
8514;SDS011;4295;51.024;7.000;2022-12-07T06:33:58;89.03;;;15.27;;
8514;SDS011;4295;51.024;7.000;2022-12-07T06:36:24;85.57;;;14.27;;
8514;SDS011;4295;51.024;7.000;2022-12-07T06:38:50;89.57;;;14.90;;
8514;SDS011;4295;51.024;7.000;2022-12-07T06:41:15;95.10;;;16.00;;
8514;SDS011;4295;51.024;7.000;2022-12-07T06:43:40;89.30;;;14.97;;
8514;SDS011;4295;51.024;7.000;2022-12-07T06:46:07;89.17;;;14.50;;
8514;SDS011;4295;51.024;7.000;2022-12-07T06:48:32;82.67;;;13.30;;
8514;SDS011;4295;51.024;7.000;2022-12-07T06:50:58;91.70;;;14.20;;
8514;SDS011;4295;51.024;7.000;2022-12-07T06:53:23;88.37;;;14.53;;
8514;SDS011;4295;51.024;7.000;2022-12-07T06:55:48;92.90;;;14.27;;
8514;SDS011;4295;51.024;7.000;2022-12-07T06:58:14;91.07;;;15.33;;
8514;SDS011;4295;51.024;7.000;2022-12-07T07:00:40;91.03;;;14.63;;
8514;SDS011;4295;51.024;7.000;2022-12-07T07:03:05;93.90;;;15.00;;
8514;SDS011;4295;51.024;7.000;2022-12-07T07:05:31;91.57;;;15.83;;
8514;SDS011;4295;51.024;7.000;2022-12-07T07:07:56;87.03;;;14.60;;
8514;SDS011;4295;51.024;7.000;2022-12-07T07:10:21;87.27;;;14.30;;
8514;SDS011;4295;51.024;7.000;2022-12-07T07:12:47;91.43;;;15.83;;
8514;SDS011;4295;51.024;7.000;2022-12-07T07:15:12;86.17;;;14.30;;
8514;SDS011;4295;51.024;7.000;2022-12-07T07:17:38;84.90;;;13.70;;
8514;SDS011;4295;51.024;7.000;2022-12-07T07:20:03;89.47;;;14.67;;
8514;SDS011;4295;51.024;7.000;2022-12-07T07:22:30;88.07;;;14.83;;
8514;SDS011;4295;51.024;7.000;2022-12-07T07:24:55;84.60;;;13.67;;
8514;SDS011;4295;51.024;7.000;2022-12-07T07:27:20;90.27;;;13.43;;
8514;SDS011;4295;51.024;7.000;2022-12-07T07:29:46;87.37;;;13.77;;
8514;SDS011;4295;51.024;7.000;2022-12-07T07:32:11;89.97;;;14.60;;
8514;SDS011;4295;51.024;7.000;2022-12-07T07:34:37;88.50;;;13.57;;
8514;SDS011;4295;51.024;7.000;2022-12-07T07:37:02;84.13;;;13.60;;
8514;SDS011;4295;51.024;7.000;2022-12-07T07:39:28;90.00;;;12.37;;
8514;SDS011;4295;51.024;7.000;2022-12-07T07:41:53;93.40;;;13.40;;
8514;SDS011;4295;51.024;7.000;2022-12-07T07:44:18;87.40;;;13.80;;
8514;SDS011;4295;51.024;7.000;2022-12-07T07:46:44;90.47;;;12.73;;
8514;SDS011;4295;51.024;7.000;2022-12-07T07:49:09;82.33;;;13.53;;
8514;SDS011;4295;51.024;7.000;2022-12-07T07:51:35;84.50;;;11.60;;
8514;SDS011;4295;51.024;7.000;2022-12-07T07:54:01;81.17;;;12.57;;
8514;SDS011;4295;51.024;7.000;2022-12-07T07:56:27;85.53;;;11.43;;
8514;SDS011;4295;51.024;7.000;2022-12-07T07:58:53;84.30;;;12.40;;
8514;SDS011;4295;51.024;7.000;2022-12-07T08:01:18;87.20;;;12.30;;
8514;SDS011;4295;51.024;7.000;2022-12-07T08:03:46;95.93;;;13.27;;
8514;SDS011;4295;51.024;7.000;2022-12-07T08:06:12;90.97;;;14.67;;
8514;SDS011;4295;51.024;7.000;2022-12-07T08:08:37;91.83;;;13.23;;
8514;SDS011;4295;51.024;7.000;2022-12-07T08:11:06;87.63;;;14.97;;
8514;SDS011;4295;51.024;7.000;2022-12-07T08:13:33;88.60;;;13.93;;
8514;SDS011;4295;51.024;7.000;2022-12-07T08:15:58;88.60;;;14.87;;
8514;SDS011;4295;51.024;7.000;2022-12-07T08:18:37;90.03;;;12.50;;
8514;SDS011;4295;51.024;7.000;2022-12-07T08:21:04;86.67;;;14.40;;
8514;SDS011;4295;51.024;7.000;2022-12-07T08:23:30;86.27;;;14.77;;
8514;SDS011;4295;51.024;7.000;2022-12-07T08:25:59;90.87;;;15.30;;
8514;SDS011;4295;51.024;7.000;2022-12-07T08:28:25;85.40;;;13.80;;
8514;SDS011;4295;51.024;7.000;2022-12-07T08:30:51;94.07;;;14.80;;
8514;SDS011;4295;51.024;7.000;2022-12-07T08:33:17;85.37;;;14.23;;
8514;SDS011;4295;51.024;7.000;2022-12-07T08:35:43;87.67;;;13.33;;
8514;SDS011;4295;51.024;7.000;2022-12-07T08:38:08;88.70;;;12.80;;
8514;SDS011;4295;51.024;7.000;2022-12-07T08:40:34;90.47;;;15.37;;
8514;SDS011;4295;51.024;7.000;2022-12-07T08:43:00;86.70;;;13.50;;
8514;SDS011;4295;51.024;7.000;2022-12-07T08:45:25;91.53;;;14.27;;
8514;SDS011;4295;51.024;7.000;2022-12-07T08:47:55;89.73;;;14.23;;
8514;SDS011;4295;51.024;7.000;2022-12-07T08:50:27;87.30;;;14.20;;
8514;SDS011;4295;51.024;7.000;2022-12-07T08:52:54;94.50;;;14.10;;
8514;SDS011;4295;51.024;7.000;2022-12-07T08:55:22;88.53;;;12.97;;
8514;SDS011;4295;51.024;7.000;2022-12-07T08:57:48;89.70;;;14.20;;
8514;SDS011;4295;51.024;7.000;2022-12-07T09:00:15;84.23;;;12.90;;
8514;SDS011;4295;51.024;7.000;2022-12-07T09:02:42;86.93;;;13.00;;
8514;SDS011;4295;51.024;7.000;2022-12-07T09:05:09;91.47;;;14.23;;
8514;SDS011;4295;51.024;7.000;2022-12-07T09:07:34;85.00;;;12.50;;
8514;SDS011;4295;51.024;7.000;2022-12-07T09:10:01;89.77;;;13.30;;
8514;SDS011;4295;51.024;7.000;2022-12-07T09:12:27;83.63;;;12.80;;
8514;SDS011;4295;51.024;7.000;2022-12-07T09:14:52;81.17;;;12.00;;
8514;SDS011;4295;51.024;7.000;2022-12-07T09:17:17;88.37;;;11.77;;
8514;SDS011;4295;51.024;7.000;2022-12-07T09:19:43;88.50;;;11.80;;
8514;SDS011;4295;51.024;7.000;2022-12-07T09:22:08;87.83;;;12.60;;
8514;SDS011;4295;51.024;7.000;2022-12-07T09:24:34;87.43;;;13.97;;
8514;SDS011;4295;51.024;7.000;2022-12-07T09:26:59;87.30;;;12.97;;
8514;SDS011;4295;51.024;7.000;2022-12-07T09:29:25;86.07;;;12.17;;
8514;SDS011;4295;51.024;7.000;2022-12-07T09:31:53;84.20;;;13.10;;
8514;SDS011;4295;51.024;7.000;2022-12-07T09:34:19;91.47;;;12.03;;
8514;SDS011;4295;51.024;7.000;2022-12-07T09:36:45;84.07;;;12.67;;
8514;SDS011;4295;51.024;7.000;2022-12-07T09:39:10;85.10;;;13.50;;
8514;SDS011;4295;51.024;7.000;2022-12-07T09:41:39;85.17;;;13.10;;
8514;SDS011;4295;51.024;7.000;2022-12-07T09:44:11;88.13;;;13.30;;
8514;SDS011;4295;51.024;7.000;2022-12-07T09:46:39;93.27;;;12.60;;
8514;SDS011;4295;51.024;7.000;2022-12-07T09:49:14;83.70;;;11.60;;
8514;SDS011;4295;51.024;7.000;2022-12-07T09:51:42;90.67;;;13.43;;
8514;SDS011;4295;51.024;7.000;2022-12-07T09:54:08;88.80;;;12.73;;
8514;SDS011;4295;51.024;7.000;2022-12-07T09:56:38;86.67;;;13.07;;
8514;SDS011;4295;51.024;7.000;2022-12-07T09:59:03;84.13;;;11.10;;
8514;SDS011;4295;51.024;7.000;2022-12-07T10:01:30;87.23;;;11.90;;
8514;SDS011;4295;51.024;7.000;2022-12-07T10:06:38;86.80;;;11.13;;
8514;SDS011;4295;51.024;7.000;2022-12-07T10:09:13;81.93;;;11.47;;
8514;SDS011;4295;51.024;7.000;2022-12-07T10:14:34;86.30;;;10.63;;
8514;SDS011;4295;51.024;7.000;2022-12-07T10:17:01;86.73;;;10.47;;
8514;SDS011;4295;51.024;7.000;2022-12-07T10:19:28;84.50;;;10.40;;
8514;SDS011;4295;51.024;7.000;2022-12-07T10:24:30;80.07;;;10.63;;
8514;SDS011;4295;51.024;7.000;2022-12-07T10:26:56;80.97;;;9.80;;
8514;SDS011;4295;51.024;7.000;2022-12-07T10:29:23;81.00;;;10.60;;
8514;SDS011;4295;51.024;7.000;2022-12-07T10:31:52;80.30;;;9.70;;
8514;SDS011;4295;51.024;7.000;2022-12-07T10:34:22;80.80;;;10.23;;
8514;SDS011;4295;51.024;7.000;2022-12-07T10:36:55;79.60;;;8.40;;
8514;SDS011;4295;51.024;7.000;2022-12-07T10:39:53;78.70;;;8.63;;
8514;SDS011;4295;51.024;7.000;2022-12-07T10:44:50;83.13;;;9.73;;
8514;SDS011;4295;51.024;7.000;2022-12-07T11:03:53;79.03;;;7.33;;
8514;SDS011;4295;51.024;7.000;2022-12-07T11:09:40;80.40;;;7.50;;
8514;SDS011;4295;51.024;7.000;2022-12-07T11:14:51;87.93;;;9.10;;
8514;SDS011;4295;51.024;7.000;2022-12-07T11:18:09;75.17;;;7.57;;
8514;SDS011;4295;51.024;7.000;2022-12-07T11:23:21;77.23;;;6.70;;
8514;SDS011;4295;51.024;7.000;2022-12-07T11:36:54;84.27;;;8.80;;
8514;SDS011;4295;51.024;7.000;2022-12-07T11:41:51;83.70;;;7.60;;
8514;SDS011;4295;51.024;7.000;2022-12-07T11:44:27;78.73;;;7.63;;
8514;SDS011;4295;51.024;7.000;2022-12-07T11:47:14;76.50;;;7.90;;
8514;SDS011;4295;51.024;7.000;2022-12-07T11:53:14;80.00;;;8.90;;
8514;SDS011;4295;51.024;7.000;2022-12-07T12:06:34;88.23;;;8.30;;
8514;SDS011;4295;51.024;7.000;2022-12-07T12:09:10;82.03;;;8.17;;
8514;SDS011;4295;51.024;7.000;2022-12-07T12:20:00;79.10;;;8.60;;
8514;SDS011;4295;51.024;7.000;2022-12-07T12:22:32;81.27;;;8.97;;
8514;SDS011;4295;51.024;7.000;2022-12-07T12:25:03;83.30;;;8.93;;
8514;SDS011;4295;51.024;7.000;2022-12-07T12:27:33;80.60;;;9.23;;
8514;SDS011;4295;51.024;7.000;2022-12-07T12:30:03;84.23;;;9.00;;
8514;SDS011;4295;51.024;7.000;2022-12-07T12:37:52;83.87;;;10.03;;
8514;SDS011;4295;51.024;7.000;2022-12-07T12:42:55;80.83;;;9.53;;
8514;SDS011;4295;51.024;7.000;2022-12-07T12:45:31;82.73;;;10.77;;
8514;SDS011;4295;51.024;7.000;2022-12-07T13:00:44;83.37;;;10.47;;
8514;SDS011;4295;51.024;7.000;2022-12-07T13:03:29;83.90;;;9.60;;
8514;SDS011;4295;51.024;7.000;2022-12-07T13:09:00;82.50;;;10.27;;
8514;SDS011;4295;51.024;7.000;2022-12-07T13:17:04;86.40;;;10.00;;
8514;SDS011;4295;51.024;7.000;2022-12-07T13:27:51;81.57;;;8.20;;
8514;SDS011;4295;51.024;7.000;2022-12-07T13:30:22;80.90;;;8.23;;
8514;SDS011;4295;51.024;7.000;2022-12-07T13:32:55;82.47;;;9.00;;
8514;SDS011;4295;51.024;7.000;2022-12-07T13:35:30;81.53;;;8.80;;
8514;SDS011;4295;51.024;7.000;2022-12-07T13:38:16;77.07;;;7.37;;
8514;SDS011;4295;51.024;7.000;2022-12-07T13:41:10;85.70;;;8.37;;
8514;SDS011;4295;51.024;7.000;2022-12-07T13:43:42;77.53;;;7.20;;
8514;SDS011;4295;51.024;7.000;2022-12-07T13:46:13;78.40;;;7.40;;
8514;SDS011;4295;51.024;7.000;2022-12-07T13:48:48;86.03;;;8.10;;
8514;SDS011;4295;51.024;7.000;2022-12-07T13:53:47;75.77;;;7.07;;
8514;SDS011;4295;51.024;7.000;2022-12-07T13:56:14;78.63;;;7.10;;
8514;SDS011;4295;51.024;7.000;2022-12-07T13:58:41;79.33;;;7.93;;
8514;SDS011;4295;51.024;7.000;2022-12-07T14:01:06;86.80;;;8.40;;
8514;SDS011;4295;51.024;7.000;2022-12-07T14:03:33;82.60;;;8.63;;
8514;SDS011;4295;51.024;7.000;2022-12-07T14:06:05;83.00;;;7.67;;
8514;SDS011;4295;51.024;7.000;2022-12-07T14:08:39;86.20;;;8.00;;
8514;SDS011;4295;51.024;7.000;2022-12-07T14:11:04;77.63;;;7.53;;
8514;SDS011;4295;51.024;7.000;2022-12-07T14:16:17;78.47;;;7.93;;
8514;SDS011;4295;51.024;7.000;2022-12-07T14:18:51;84.50;;;8.20;;
8514;SDS011;4295;51.024;7.000;2022-12-07T14:21:17;100.13;;;10.23;;
8514;SDS011;4295;51.024;7.000;2022-12-07T14:23:45;78.83;;;7.40;;
8514;SDS011;4295;51.024;7.000;2022-12-07T14:26:26;80.10;;;7.37;;
8514;SDS011;4295;51.024;7.000;2022-12-07T14:28:51;86.97;;;9.03;;
8514;SDS011;4295;51.024;7.000;2022-12-07T14:31:17;91.23;;;9.57;;
8514;SDS011;4295;51.024;7.000;2022-12-07T14:33:47;83.57;;;8.73;;
8514;SDS011;4295;51.024;7.000;2022-12-07T14:36:13;81.83;;;8.53;;
8514;SDS011;4295;51.024;7.000;2022-12-07T14:38:39;91.90;;;9.80;;
8514;SDS011;4295;51.024;7.000;2022-12-07T14:41:06;84.17;;;8.93;;
8514;SDS011;4295;51.024;7.000;2022-12-07T14:43:57;79.87;;;8.70;;
8514;SDS011;4295;51.024;7.000;2022-12-07T14:46:22;77.77;;;8.07;;
8514;SDS011;4295;51.024;7.000;2022-12-07T14:48:47;81.37;;;9.10;;
8514;SDS011;4295;51.024;7.000;2022-12-07T14:51:13;82.50;;;9.30;;
8514;SDS011;4295;51.024;7.000;2022-12-07T14:53:43;79.90;;;9.30;;
8514;SDS011;4295;51.024;7.000;2022-12-07T14:56:12;86.63;;;9.30;;
8514;SDS011;4295;51.024;7.000;2022-12-07T14:58:38;81.20;;;8.87;;
8514;SDS011;4295;51.024;7.000;2022-12-07T15:01:04;86.60;;;9.10;;
8514;SDS011;4295;51.024;7.000;2022-12-07T15:03:30;77.43;;;8.40;;
8514;SDS011;4295;51.024;7.000;2022-12-07T15:05:55;81.07;;;9.00;;
8514;SDS011;4295;51.024;7.000;2022-12-07T15:08:21;77.10;;;8.33;;
8514;SDS011;4295;51.024;7.000;2022-12-07T15:10:46;83.97;;;8.90;;
8514;SDS011;4295;51.024;7.000;2022-12-07T15:13:11;81.60;;;9.10;;
8514;SDS011;4295;51.024;7.000;2022-12-07T15:15:55;80.63;;;8.73;;
8514;SDS011;4295;51.024;7.000;2022-12-07T15:18:21;82.97;;;9.67;;
8514;SDS011;4295;51.024;7.000;2022-12-07T15:20:48;80.33;;;9.77;;
8514;SDS011;4295;51.024;7.000;2022-12-07T15:23:14;81.73;;;9.87;;
8514;SDS011;4295;51.024;7.000;2022-12-07T15:25:40;81.10;;;9.43;;
8514;SDS011;4295;51.024;7.000;2022-12-07T15:28:07;84.53;;;10.83;;
8514;SDS011;4295;51.024;7.000;2022-12-07T15:30:32;80.03;;;9.43;;
8514;SDS011;4295;51.024;7.000;2022-12-07T15:32:57;83.53;;;9.13;;
8514;SDS011;4295;51.024;7.000;2022-12-07T15:35:23;78.77;;;7.97;;
8514;SDS011;4295;51.024;7.000;2022-12-07T15:37:48;81.90;;;7.63;;
8514;SDS011;4295;51.024;7.000;2022-12-07T15:40:13;78.10;;;6.70;;
8514;SDS011;4295;51.024;7.000;2022-12-07T15:42:39;77.80;;;6.87;;
8514;SDS011;4295;51.024;7.000;2022-12-07T15:45:05;76.37;;;6.23;;
8514;SDS011;4295;51.024;7.000;2022-12-07T15:47:42;73.30;;;6.20;;
8514;SDS011;4295;51.024;7.000;2022-12-07T15:50:11;78.40;;;6.77;;
8514;SDS011;4295;51.024;7.000;2022-12-07T15:52:38;78.00;;;6.03;;
8514;SDS011;4295;51.024;7.000;2022-12-07T15:55:04;74.73;;;5.80;;
8514;SDS011;4295;51.024;7.000;2022-12-07T15:57:30;74.80;;;6.93;;
8514;SDS011;4295;51.024;7.000;2022-12-07T15:59:57;75.43;;;6.23;;
8514;SDS011;4295;51.024;7.000;2022-12-07T16:02:23;76.97;;;6.10;;
8514;SDS011;4295;51.024;7.000;2022-12-07T16:04:49;86.33;;;8.70;;
8514;SDS011;4295;51.024;7.000;2022-12-07T16:07:15;79.97;;;9.03;;
8514;SDS011;4295;51.024;7.000;2022-12-07T16:09:42;81.03;;;9.80;;
8514;SDS011;4295;51.024;7.000;2022-12-07T16:12:08;78.60;;;9.60;;
8514;SDS011;4295;51.024;7.000;2022-12-07T16:14:33;81.43;;;9.43;;
8514;SDS011;4295;51.024;7.000;2022-12-07T16:16:59;81.40;;;10.83;;
8514;SDS011;4295;51.024;7.000;2022-12-07T16:19:24;80.20;;;11.03;;
8514;SDS011;4295;51.024;7.000;2022-12-07T16:21:50;80.00;;;10.20;;
8514;SDS011;4295;51.024;7.000;2022-12-07T16:24:15;82.37;;;10.37;;
8514;SDS011;4295;51.024;7.000;2022-12-07T16:26:41;82.63;;;9.10;;
8514;SDS011;4295;51.024;7.000;2022-12-07T16:29:07;82.13;;;9.67;;
8514;SDS011;4295;51.024;7.000;2022-12-07T16:31:32;87.57;;;10.50;;
8514;SDS011;4295;51.024;7.000;2022-12-07T16:33:58;79.77;;;8.67;;
8514;SDS011;4295;51.024;7.000;2022-12-07T16:36:24;80.40;;;8.60;;
8514;SDS011;4295;51.024;7.000;2022-12-07T16:38:51;85.57;;;9.83;;
8514;SDS011;4295;51.024;7.000;2022-12-07T16:41:17;78.67;;;9.70;;
8514;SDS011;4295;51.024;7.000;2022-12-07T16:43:43;83.47;;;10.40;;
8514;SDS011;4295;51.024;7.000;2022-12-07T16:46:08;79.57;;;9.70;;
8514;SDS011;4295;51.024;7.000;2022-12-07T16:48:35;80.03;;;9.40;;
8514;SDS011;4295;51.024;7.000;2022-12-07T16:51:05;82.40;;;10.37;;
8514;SDS011;4295;51.024;7.000;2022-12-07T16:53:33;83.20;;;10.00;;
8514;SDS011;4295;51.024;7.000;2022-12-07T16:55:59;85.63;;;8.57;;
8514;SDS011;4295;51.024;7.000;2022-12-07T16:58:25;79.00;;;8.20;;
8514;SDS011;4295;51.024;7.000;2022-12-07T17:00:50;83.20;;;8.13;;
8514;SDS011;4295;51.024;7.000;2022-12-07T17:03:16;75.73;;;8.50;;
8514;SDS011;4295;51.024;7.000;2022-12-07T17:05:42;77.53;;;8.70;;
8514;SDS011;4295;51.024;7.000;2022-12-07T17:08:09;82.40;;;10.30;;
8514;SDS011;4295;51.024;7.000;2022-12-07T17:10:36;78.57;;;10.50;;
8514;SDS011;4295;51.024;7.000;2022-12-07T17:13:04;82.40;;;11.47;;
8514;SDS011;4295;51.024;7.000;2022-12-07T17:16:01;81.33;;;9.00;;
8514;SDS011;4295;51.024;7.000;2022-12-07T17:18:32;82.63;;;10.63;;
8514;SDS011;4295;51.024;7.000;2022-12-07T17:21:06;80.30;;;10.77;;
8514;SDS011;4295;51.024;7.000;2022-12-07T17:23:34;81.20;;;9.93;;
8514;SDS011;4295;51.024;7.000;2022-12-07T17:26:08;87.50;;;10.87;;
8514;SDS011;4295;51.024;7.000;2022-12-07T17:28:35;83.00;;;11.53;;
8514;SDS011;4295;51.024;7.000;2022-12-07T17:31:04;82.10;;;12.13;;
8514;SDS011;4295;51.024;7.000;2022-12-07T17:33:31;87.30;;;13.57;;
8514;SDS011;4295;51.024;7.000;2022-12-07T17:35:57;84.83;;;13.57;;
8514;SDS011;4295;51.024;7.000;2022-12-07T17:38:22;85.20;;;12.80;;